sensor_id;sensor_type;location;lat;lon;timestamp;pressure;altitude;pressure_sealevel;temperature;humidity
22964;BME280;11648;49.306;6.934;2022-08-30T00:02:19;98588.47;;;25.43;34.07
22964;BME280;11648;49.306;6.934;2022-08-30T00:04:46;98606.25;;;25.45;34.10
22964;BME280;11648;49.306;6.934;2022-08-30T00:07:14;98595.56;;;25.44;34.11
22964;BME280;11648;49.306;6.934;2022-08-30T00:09:41;98609.91;;;25.44;33.96
22964;BME280;11648;49.306;6.934;2022-08-30T00:12:08;98608.94;;;25.45;33.93
22964;BME280;11648;49.306;6.934;2022-08-30T00:14:35;98608.72;;;25.48;33.93
22964;BME280;11648;49.306;6.934;2022-08-30T00:17:02;98609.38;;;25.39;34.00
22964;BME280;11648;49.306;6.934;2022-08-30T00:19:29;98604.63;;;25.43;34.09
22964;BME280;11648;49.306;6.934;2022-08-30T00:21:56;98615.72;;;25.38;33.98
22964;BME280;11648;49.306;6.934;2022-08-30T00:24:23;98612.16;;;25.38;34.17
22964;BME280;11648;49.306;6.934;2022-08-30T00:26:49;98611.06;;;25.40;34.03
22964;BME280;11648;49.306;6.934;2022-08-30T00:29:16;98612.59;;;25.44;33.90
22964;BME280;11648;49.306;6.934;2022-08-30T00:31:43;98609.38;;;25.39;34.19
22964;BME280;11648;49.306;6.934;2022-08-30T00:34:10;98607.97;;;25.46;34.26
22964;BME280;11648;49.306;6.934;2022-08-30T00:36:37;98606.69;;;25.39;34.54
22964;BME280;11648;49.306;6.934;2022-08-30T00:39:04;98614.41;;;25.44;34.81
22964;BME280;11648;49.306;6.934;2022-08-30T00:41:32;98612.72;;;25.43;34.55
22964;BME280;11648;49.306;6.934;2022-08-30T00:43:58;98601.94;;;25.43;34.20
22964;BME280;11648;49.306;6.934;2022-08-30T00:46:26;98603.50;;;25.33;34.35
22964;BME280;11648;49.306;6.934;2022-08-30T00:48:54;98603.84;;;25.28;34.32
22964;BME280;11648;49.306;6.934;2022-08-30T00:51:22;98612.31;;;25.22;34.60
22964;BME280;11648;49.306;6.934;2022-08-30T00:53:52;98612.00;;;25.14;34.44
22964;BME280;11648;49.306;6.934;2022-08-30T00:56:23;98606.19;;;25.20;34.61
22964;BME280;11648;49.306;6.934;2022-08-30T00:58:54;98607.94;;;25.21;34.64
22964;BME280;11648;49.306;6.934;2022-08-30T01:01:23;98602.41;;;25.10;34.63
22964;BME280;11648;49.306;6.934;2022-08-30T01:03:50;98602.59;;;25.07;34.31
22964;BME280;11648;49.306;6.934;2022-08-30T01:06:17;98607.13;;;25.06;34.30
22964;BME280;11648;49.306;6.934;2022-08-30T01:08:45;98601.63;;;25.08;34.39
22964;BME280;11648;49.306;6.934;2022-08-30T01:11:16;98614.09;;;24.96;34.42
22964;BME280;11648;49.306;6.934;2022-08-30T01:13:44;98611.28;;;24.98;34.54
22964;BME280;11648;49.306;6.934;2022-08-30T01:16:13;98608.59;;;24.98;34.72
22964;BME280;11648;49.306;6.934;2022-08-30T01:18:41;98606.78;;;24.98;34.74
22964;BME280;11648;49.306;6.934;2022-08-30T01:21:19;98599.44;;;25.00;34.63
22964;BME280;11648;49.306;6.934;2022-08-30T01:23:50;98605.91;;;24.98;35.15
22964;BME280;11648;49.306;6.934;2022-08-30T01:26:20;98603.78;;;25.03;35.10
22964;BME280;11648;49.306;6.934;2022-08-30T01:28:52;98601.38;;;24.98;34.90
22964;BME280;11648;49.306;6.934;2022-08-30T01:31:21;98608.19;;;25.04;34.88
22964;BME280;11648;49.306;6.934;2022-08-30T01:33:48;98607.22;;;25.05;34.76
22964;BME280;11648;49.306;6.934;2022-08-30T01:36:18;98600.44;;;24.99;35.14
22964;BME280;11648;49.306;6.934;2022-08-30T01:38:56;98598.28;;;25.04;34.91
22964;BME280;11648;49.306;6.934;2022-08-30T01:41:26;98595.50;;;25.06;34.96
22964;BME280;11648;49.306;6.934;2022-08-30T01:43:55;98590.84;;;25.08;34.61
22964;BME280;11648;49.306;6.934;2022-08-30T01:46:26;98592.78;;;25.06;34.80
22964;BME280;11648;49.306;6.934;2022-08-30T01:48:56;98595.38;;;25.07;34.85
22964;BME280;11648;49.306;6.934;2022-08-30T01:51:26;98599.13;;;25.05;34.87
22964;BME280;11648;49.306;6.934;2022-08-30T01:53:53;98596.75;;;25.00;35.25
22964;BME280;11648;49.306;6.934;2022-08-30T01:56:21;98594.59;;;24.93;34.92
22964;BME280;11648;49.306;6.934;2022-08-30T01:58:49;98593.94;;;24.89;35.65
22964;BME280;11648;49.306;6.934;2022-08-30T02:01:18;98590.91;;;24.94;34.91
22964;BME280;11648;49.306;6.934;2022-08-30T02:03:47;98586.59;;;24.91;34.95
22964;BME280;11648;49.306;6.934;2022-08-30T02:06:17;98587.47;;;24.92;35.02
22964;BME280;11648;49.306;6.934;2022-08-30T02:08:45;98593.41;;;24.83;35.31
22964;BME280;11648;49.306;6.934;2022-08-30T02:11:12;98593.63;;;24.80;35.47
22964;BME280;11648;49.306;6.934;2022-08-30T02:13:40;98598.56;;;24.73;35.46
22964;BME280;11648;49.306;6.934;2022-08-30T02:16:10;98594.78;;;24.76;35.66
22964;BME280;11648;49.306;6.934;2022-08-30T02:18:37;98587.78;;;24.73;35.42
22964;BME280;11648;49.306;6.934;2022-08-30T02:21:08;98590.69;;;24.70;35.65
22964;BME280;11648;49.306;6.934;2022-08-30T02:23:35;98589.16;;;24.66;35.74
22964;BME280;11648;49.306;6.934;2022-08-30T02:26:03;98589.16;;;24.66;35.83
22964;BME280;11648;49.306;6.934;2022-08-30T02:28:30;98583.53;;;24.56;36.24
22964;BME280;11648;49.306;6.934;2022-08-30T02:30:58;98573.41;;;24.60;35.92
22964;BME280;11648;49.306;6.934;2022-08-30T02:33:25;98584.28;;;24.58;35.96
22964;BME280;11648;49.306;6.934;2022-08-30T02:35:52;98578.44;;;24.52;35.79
22964;BME280;11648;49.306;6.934;2022-08-30T02:38:19;98575.75;;;24.52;36.26
22964;BME280;11648;49.306;6.934;2022-08-30T02:40:46;98575.63;;;24.53;36.00
22964;BME280;11648;49.306;6.934;2022-08-30T02:43:13;98576.69;;;24.51;36.16
22964;BME280;11648;49.306;6.934;2022-08-30T02:45:40;98567.97;;;24.47;36.09
22964;BME280;11648;49.306;6.934;2022-08-30T02:48:07;98566.44;;;24.43;36.18
22964;BME280;11648;49.306;6.934;2022-08-30T02:50:38;98563.44;;;24.48;35.91
22964;BME280;11648;49.306;6.934;2022-08-30T02:53:05;98555.88;;;24.40;36.63
22964;BME280;11648;49.306;6.934;2022-08-30T02:55:35;98559.63;;;24.38;36.61
22964;BME280;11648;49.306;6.934;2022-08-30T02:58:01;98562.31;;;24.38;36.71
22964;BME280;11648;49.306;6.934;2022-08-30T03:00:28;98563.41;;;24.21;36.67
22964;BME280;11648;49.306;6.934;2022-08-30T03:02:56;98570.81;;;24.18;37.02
22964;BME280;11648;49.306;6.934;2022-08-30T03:05:23;98570.81;;;24.18;36.88
22964;BME280;11648;49.306;6.934;2022-08-30T03:07:50;98566.75;;;24.10;37.56
22964;BME280;11648;49.306;6.934;2022-08-30T03:10:17;98565.41;;;24.03;37.23
22964;BME280;11648;49.306;6.934;2022-08-30T03:12:44;98577.44;;;23.98;37.42
22964;BME280;11648;49.306;6.934;2022-08-30T03:15:14;98565.53;;;24.02;37.38
22964;BME280;11648;49.306;6.934;2022-08-30T03:17:41;98576.56;;;23.97;37.33
22964;BME280;11648;49.306;6.934;2022-08-30T03:20:09;98568.78;;;23.93;37.33
22964;BME280;11648;49.306;6.934;2022-08-30T03:22:37;98566.88;;;23.95;37.09
22964;BME280;11648;49.306;6.934;2022-08-30T03:25:04;98565.53;;;23.88;37.64
22964;BME280;11648;49.306;6.934;2022-08-30T03:27:31;98562.44;;;23.94;37.44
22964;BME280;11648;49.306;6.934;2022-08-30T03:29:58;98565.34;;;23.91;37.43
22964;BME280;11648;49.306;6.934;2022-08-30T03:32:25;98558.03;;;23.79;37.62
22964;BME280;11648;49.306;6.934;2022-08-30T03:34:52;98549.59;;;23.85;37.30
22964;BME280;11648;49.306;6.934;2022-08-30T03:37:18;98552.75;;;23.91;37.19
22964;BME280;11648;49.306;6.934;2022-08-30T03:39:51;98552.66;;;23.93;37.39
22964;BME280;11648;49.306;6.934;2022-08-30T03:42:18;98547.19;;;23.80;37.54
22964;BME280;11648;49.306;6.934;2022-08-30T03:44:47;98548.75;;;23.70;37.90
22964;BME280;11648;49.306;6.934;2022-08-30T03:47:14;98548.06;;;23.67;37.88
22964;BME280;11648;49.306;6.934;2022-08-30T03:49:41;98537.13;;;23.55;38.34
22964;BME280;11648;49.306;6.934;2022-08-30T03:52:08;98547.88;;;23.70;37.75
22964;BME280;11648;49.306;6.934;2022-08-30T03:54:34;98540.94;;;23.66;37.56
22964;BME280;11648;49.306;6.934;2022-08-30T03:59:30;98543.25;;;23.72;37.56
22964;BME280;11648;49.306;6.934;2022-08-30T04:01:57;98546.53;;;23.77;37.39
22964;BME280;11648;49.306;6.934;2022-08-30T04:04:24;98545.84;;;23.73;37.60
22964;BME280;11648;49.306;6.934;2022-08-30T04:06:51;98547.47;;;23.76;37.63
22964;BME280;11648;49.306;6.934;2022-08-30T04:09:18;98552.56;;;23.80;37.25
22964;BME280;11648;49.306;6.934;2022-08-30T04:11:45;98558.16;;;23.77;37.30
22964;BME280;11648;49.306;6.934;2022-08-30T04:14:12;98562.19;;;23.70;37.64
22964;BME280;11648;49.306;6.934;2022-08-30T04:16:39;98562.19;;;23.70;37.95
22964;BME280;11648;49.306;6.934;2022-08-30T04:19:06;98560.31;;;23.56;38.33
22964;BME280;11648;49.306;6.934;2022-08-30T04:21:33;98559.56;;;23.54;38.20
22964;BME280;11648;49.306;6.934;2022-08-30T04:24:08;98563.13;;;23.55;38.04
22964;BME280;11648;49.306;6.934;2022-08-30T04:26:35;98555.94;;;23.55;37.97
22964;BME280;11648;49.306;6.934;2022-08-30T04:29:02;98559.75;;;23.51;38.32
22964;BME280;11648;49.306;6.934;2022-08-30T04:31:32;98562.63;;;23.48;38.37
22964;BME280;11648;49.306;6.934;2022-08-30T04:33:59;98562.22;;;23.40;38.45
22964;BME280;11648;49.306;6.934;2022-08-30T04:36:26;98576.69;;;23.38;38.75
22964;BME280;11648;49.306;6.934;2022-08-30T04:38:52;98566.81;;;23.38;38.68
22964;BME280;11648;49.306;6.934;2022-08-30T04:41:20;98563.00;;;23.42;38.29
22964;BME280;11648;49.306;6.934;2022-08-30T04:43:50;98557.53;;;23.44;38.77
22964;BME280;11648;49.306;6.934;2022-08-30T04:46:17;98571.53;;;23.35;38.77
22964;BME280;11648;49.306;6.934;2022-08-30T04:48:45;98576.22;;;23.31;39.21
22964;BME280;11648;49.306;6.934;2022-08-30T04:51:15;98575.84;;;23.37;38.92
22964;BME280;11648;49.306;6.934;2022-08-30T04:53:43;98573.59;;;23.45;38.32
22964;BME280;11648;49.306;6.934;2022-08-30T04:56:15;98566.09;;;23.50;38.55
22964;BME280;11648;49.306;6.934;2022-08-30T05:01:15;98576.28;;;23.59;38.03
22964;BME280;11648;49.306;6.934;2022-08-30T05:03:47;98578.41;;;23.69;37.74
22964;BME280;11648;49.306;6.934;2022-08-30T05:06:15;98577.25;;;23.73;38.17
22964;BME280;11648;49.306;6.934;2022-08-30T05:08:43;98582.81;;;23.70;38.18
22964;BME280;11648;49.306;6.934;2022-08-30T05:11:12;98585.31;;;23.73;37.95
22964;BME280;11648;49.306;6.934;2022-08-30T05:13:42;98581.94;;;23.69;38.13
22964;BME280;11648;49.306;6.934;2022-08-30T05:16:09;98585.03;;;23.77;38.41
22964;BME280;11648;49.306;6.934;2022-08-30T05:18:36;98585.97;;;23.76;38.50
22964;BME280;11648;49.306;6.934;2022-08-30T05:21:08;98579.66;;;23.77;37.92
22964;BME280;11648;49.306;6.934;2022-08-30T05:23:37;98590.09;;;23.82;38.51
22964;BME280;11648;49.306;6.934;2022-08-30T05:26:13;98594.13;;;23.89;38.60
22964;BME280;11648;49.306;6.934;2022-08-30T05:28:41;98593.19;;;24.04;37.96
22964;BME280;11648;49.306;6.934;2022-08-30T05:31:17;98593.88;;;24.22;37.59
22964;BME280;11648;49.306;6.934;2022-08-30T05:33:45;98595.66;;;24.49;37.75
22964;BME280;11648;49.306;6.934;2022-08-30T05:36:14;98595.22;;;24.70;36.78
22964;BME280;11648;49.306;6.934;2022-08-30T05:38:42;98602.78;;;25.04;36.73
22964;BME280;11648;49.306;6.934;2022-08-30T05:41:10;98597.69;;;25.26;35.77
22964;BME280;11648;49.306;6.934;2022-08-30T05:43:38;98600.91;;;25.71;35.34
22964;BME280;11648;49.306;6.934;2022-08-30T05:46:08;98598.41;;;26.05;34.45
22964;BME280;11648;49.306;6.934;2022-08-30T05:48:37;98590.91;;;26.47;33.70
22964;BME280;11648;49.306;6.934;2022-08-30T05:51:08;98591.00;;;26.58;34.38
22964;BME280;11648;49.306;6.934;2022-08-30T05:53:35;98595.34;;;26.84;34.10
22964;BME280;11648;49.306;6.934;2022-08-30T05:56:04;98588.75;;;27.23;32.28
22964;BME280;11648;49.306;6.934;2022-08-30T05:58:31;98585.81;;;27.50;32.13
22964;BME280;11648;49.306;6.934;2022-08-30T06:00:59;98583.28;;;27.82;32.11
22964;BME280;11648;49.306;6.934;2022-08-30T06:03:26;98590.44;;;27.83;32.09
22964;BME280;11648;49.306;6.934;2022-08-30T06:05:53;98587.22;;;27.89;32.29
22964;BME280;11648;49.306;6.934;2022-08-30T06:08:21;98587.59;;;27.95;32.11
22964;BME280;11648;49.306;6.934;2022-08-30T06:10:47;98582.09;;;28.30;32.01
22964;BME280;11648;49.306;6.934;2022-08-30T06:13:15;98581.69;;;28.57;31.39
22964;BME280;11648;49.306;6.934;2022-08-30T06:15:41;98581.75;;;28.89;30.55
22964;BME280;11648;49.306;6.934;2022-08-30T06:18:13;98575.72;;;29.28;29.79
22964;BME280;11648;49.306;6.934;2022-08-30T06:20:44;98576.81;;;29.26;30.37
22964;BME280;11648;49.306;6.934;2022-08-30T06:23:16;98582.69;;;29.42;29.99
22964;BME280;11648;49.306;6.934;2022-08-30T06:25:43;98574.00;;;29.69;29.25
22964;BME280;11648;49.306;6.934;2022-08-30T06:28:10;98571.13;;;30.12;28.94
22964;BME280;11648;49.306;6.934;2022-08-30T06:30:39;98582.03;;;30.52;28.39
22964;BME280;11648;49.306;6.934;2022-08-30T06:33:06;98578.72;;;30.98;27.38
22964;BME280;11648;49.306;6.934;2022-08-30T06:35:33;98580.16;;;31.30;26.84
22964;BME280;11648;49.306;6.934;2022-08-30T06:38:07;98580.16;;;31.11;27.54
22964;BME280;11648;49.306;6.934;2022-08-30T06:40:35;98580.16;;;31.11;27.49
22964;BME280;11648;49.306;6.934;2022-08-30T06:43:01;98581.31;;;30.50;28.64
22964;BME280;11648;49.306;6.934;2022-08-30T06:45:28;98581.63;;;30.66;28.12
22964;BME280;11648;49.306;6.934;2022-08-30T06:47:57;98587.53;;;30.80;28.09
22964;BME280;11648;49.306;6.934;2022-08-30T06:50:24;98589.03;;;31.04;27.86
22964;BME280;11648;49.306;6.934;2022-08-30T06:52:51;98591.88;;;31.12;27.27
22964;BME280;11648;49.306;6.934;2022-08-30T06:55:18;98589.16;;;31.41;27.10
22964;BME280;11648;49.306;6.934;2022-08-30T06:57:45;98584.00;;;31.76;26.92
22964;BME280;11648;49.306;6.934;2022-08-30T07:00:14;98572.88;;;32.16;26.25
22964;BME280;11648;49.306;6.934;2022-08-30T07:02:41;98579.34;;;32.79;25.48
22964;BME280;11648;49.306;6.934;2022-08-30T07:05:09;98583.19;;;33.57;24.73
22964;BME280;11648;49.306;6.934;2022-08-30T07:07:43;98585.91;;;33.57;24.83
22964;BME280;11648;49.306;6.934;2022-08-30T07:10:10;98583.78;;;33.86;24.41
22964;BME280;11648;49.306;6.934;2022-08-30T07:12:37;98588.38;;;34.71;23.52
22964;BME280;11648;49.306;6.934;2022-08-30T07:15:04;98583.78;;;34.46;23.69
22964;BME280;11648;49.306;6.934;2022-08-30T07:17:32;98594.72;;;34.12;24.22
22964;BME280;11648;49.306;6.934;2022-08-30T07:20:18;98589.91;;;33.88;24.46
22964;BME280;11648;49.306;6.934;2022-08-30T07:22:47;98600.03;;;33.52;24.95
22964;BME280;11648;49.306;6.934;2022-08-30T07:25:14;98594.97;;;33.57;25.39
22964;BME280;11648;49.306;6.934;2022-08-30T07:27:42;98590.00;;;33.96;24.20
22964;BME280;11648;49.306;6.934;2022-08-30T07:30:11;98593.13;;;33.40;24.76
22964;BME280;11648;49.306;6.934;2022-08-30T07:32:38;98598.94;;;33.45;25.40
22964;BME280;11648;49.306;6.934;2022-08-30T07:35:05;98596.44;;;33.52;24.66
22964;BME280;11648;49.306;6.934;2022-08-30T07:37:32;98589.16;;;34.21;23.57
22964;BME280;11648;49.306;6.934;2022-08-30T07:39:59;98597.69;;;34.60;23.72
22964;BME280;11648;49.306;6.934;2022-08-30T07:42:26;98597.97;;;36.06;21.98
22964;BME280;11648;49.306;6.934;2022-08-30T07:44:53;98596.28;;;36.13;21.64
22964;BME280;11648;49.306;6.934;2022-08-30T07:47:22;98599.03;;;35.64;22.20
22964;BME280;11648;49.306;6.934;2022-08-30T07:49:49;98597.66;;;35.77;23.05
22964;BME280;11648;49.306;6.934;2022-08-30T07:52:16;98593.56;;;35.64;21.85
22964;BME280;11648;49.306;6.934;2022-08-30T07:54:42;98594.59;;;35.63;22.01
22964;BME280;11648;49.306;6.934;2022-08-30T07:57:10;98590.38;;;36.32;22.03
22964;BME280;11648;49.306;6.934;2022-08-30T07:59:41;98591.00;;;37.51;20.89
22964;BME280;11648;49.306;6.934;2022-08-30T08:02:08;98584.72;;;38.54;19.07
22964;BME280;11648;49.306;6.934;2022-08-30T08:04:35;98593.16;;;39.18;18.97
22964;BME280;11648;49.306;6.934;2022-08-30T08:07:02;98589.19;;;39.84;18.08
22964;BME280;11648;49.306;6.934;2022-08-30T08:09:29;98593.38;;;40.02;18.67
22964;BME280;11648;49.306;6.934;2022-08-30T08:11:56;98580.69;;;41.17;17.19
22964;BME280;11648;49.306;6.934;2022-08-30T08:14:23;98581.34;;;41.25;17.03
22964;BME280;11648;49.306;6.934;2022-08-30T08:16:50;98583.66;;;41.22;17.14
22964;BME280;11648;49.306;6.934;2022-08-30T08:19:17;98591.53;;;40.09;17.84
22964;BME280;11648;49.306;6.934;2022-08-30T08:21:45;98596.81;;;39.82;18.06
22964;BME280;11648;49.306;6.934;2022-08-30T08:24:12;98592.94;;;40.26;17.86
22964;BME280;11648;49.306;6.934;2022-08-30T08:26:39;98583.13;;;40.51;17.26
22964;BME280;11648;49.306;6.934;2022-08-30T08:29:11;98591.56;;;40.43;17.47
22964;BME280;11648;49.306;6.934;2022-08-30T08:31:38;98591.13;;;40.74;17.66
22964;BME280;11648;49.306;6.934;2022-08-30T08:34:07;98583.81;;;41.01;17.26
22964;BME280;11648;49.306;6.934;2022-08-30T08:36:35;98586.25;;;40.41;17.59
22964;BME280;11648;49.306;6.934;2022-08-30T08:39:03;98585.97;;;39.02;19.06
22964;BME280;11648;49.306;6.934;2022-08-30T08:50:04;98580.75;;;40.89;17.83
22964;BME280;11648;49.306;6.934;2022-08-30T08:55:30;98574.50;;;40.67;18.08
22964;BME280;11648;49.306;6.934;2022-08-30T08:57:57;98565.06;;;40.89;17.83
22964;BME280;11648;49.306;6.934;2022-08-30T09:00:24;98553.16;;;42.09;17.35
22964;BME280;11648;49.306;6.934;2022-08-30T09:03:02;98563.81;;;43.33;16.18
22964;BME280;11648;49.306;6.934;2022-08-30T09:05:38;98560.22;;;43.64;15.61
22964;BME280;11648;49.306;6.934;2022-08-30T09:08:12;98560.25;;;43.58;15.70
22964;BME280;11648;49.306;6.934;2022-08-30T09:10:44;98552.66;;;43.40;15.81
22964;BME280;11648;49.306;6.934;2022-08-30T09:13:18;98536.06;;;43.96;15.65
22964;BME280;11648;49.306;6.934;2022-08-30T09:15:48;98551.19;;;44.00;15.30
22964;BME280;11648;49.306;6.934;2022-08-30T09:21:08;98546.69;;;43.74;15.54
22964;BME280;11648;49.306;6.934;2022-08-30T09:23:35;98557.50;;;43.20;15.98
22964;BME280;11648;49.306;6.934;2022-08-30T09:26:08;98552.16;;;43.56;16.35
22964;BME280;11648;49.306;6.934;2022-08-30T09:28:49;98548.25;;;44.38;15.57
22964;BME280;11648;49.306;6.934;2022-08-30T09:34:04;98529.50;;;46.01;14.38
22964;BME280;11648;49.306;6.934;2022-08-30T09:36:49;98522.91;;;46.77;13.85
22964;BME280;11648;49.306;6.934;2022-08-30T09:39:29;98526.84;;;46.92;13.63
22964;BME280;11648;49.306;6.934;2022-08-30T09:42:23;98531.81;;;47.47;13.63
22964;BME280;11648;49.306;6.934;2022-08-30T09:44:52;98527.06;;;47.02;13.81
22964;BME280;11648;49.306;6.934;2022-08-30T09:47:22;98523.47;;;47.47;13.47
22964;BME280;11648;49.306;6.934;2022-08-30T09:50:13;98516.22;;;47.79;13.43
22964;BME280;11648;49.306;6.934;2022-08-30T09:52:44;98527.81;;;47.88;13.40
22964;BME280;11648;49.306;6.934;2022-08-30T09:58:12;98513.09;;;48.47;12.83
22964;BME280;11648;49.306;6.934;2022-08-30T10:00:51;98522.59;;;49.12;12.71
22964;BME280;11648;49.306;6.934;2022-08-30T10:03:31;98516.06;;;49.01;12.57
22964;BME280;11648;49.306;6.934;2022-08-30T10:06:33;98506.03;;;48.62;13.07
22964;BME280;11648;49.306;6.934;2022-08-30T10:09:23;98509.53;;;48.30;12.76
22964;BME280;11648;49.306;6.934;2022-08-30T10:20:32;98510.44;;;49.50;12.52
22964;BME280;11648;49.306;6.934;2022-08-30T10:23:13;98508.53;;;49.02;12.94
22964;BME280;11648;49.306;6.934;2022-08-30T10:25:47;98506.66;;;48.64;13.00
22964;BME280;11648;49.306;6.934;2022-08-30T10:28:34;98504.34;;;48.61;13.26
22964;BME280;11648;49.306;6.934;2022-08-30T10:31:08;98493.66;;;48.74;13.07
22964;BME280;11648;49.306;6.934;2022-08-30T10:33:39;98492.34;;;48.82;12.56
22964;BME280;11648;49.306;6.934;2022-08-30T10:36:10;98495.50;;;48.90;12.82
22964;BME280;11648;49.306;6.934;2022-08-30T10:38:40;98503.63;;;48.92;12.51
22964;BME280;11648;49.306;6.934;2022-08-30T10:49:42;98493.56;;;50.03;11.95
22964;BME280;11648;49.306;6.934;2022-08-30T10:55:00;98497.31;;;49.82;12.56
22964;BME280;11648;49.306;6.934;2022-08-30T10:57:28;98494.88;;;49.64;12.16
22964;BME280;11648;49.306;6.934;2022-08-30T11:00:08;98494.00;;;49.90;12.11
22964;BME280;11648;49.306;6.934;2022-08-30T11:05:37;98488.91;;;50.24;12.29
22964;BME280;11648;49.306;6.934;2022-08-30T11:14:00;98489.81;;;50.34;11.96
22964;BME280;11648;49.306;6.934;2022-08-30T11:16:43;98481.00;;;50.58;11.32
22964;BME280;11648;49.306;6.934;2022-08-30T11:19:26;98486.31;;;48.95;12.78
22964;BME280;11648;49.306;6.934;2022-08-30T11:22:14;98489.66;;;48.27;12.82
22964;BME280;11648;49.306;6.934;2022-08-30T11:27:53;98479.81;;;50.44;11.06
22964;BME280;11648;49.306;6.934;2022-08-30T11:33:00;98466.94;;;50.53;11.03
22964;BME280;11648;49.306;6.934;2022-08-30T11:35:49;98462.22;;;50.63;10.08
22964;BME280;11648;49.306;6.934;2022-08-30T11:48:47;98460.19;;;50.44;10.37
22964;BME280;11648;49.306;6.934;2022-08-30T11:51:32;98454.00;;;49.31;10.97
22964;BME280;11648;49.306;6.934;2022-08-30T11:54:38;98456.47;;;49.00;11.16
22964;BME280;11648;49.306;6.934;2022-08-30T12:02:53;98443.66;;;47.79;12.73
22964;BME280;11648;49.306;6.934;2022-08-30T12:18:42;98450.94;;;44.08;15.33
22964;BME280;11648;49.306;6.934;2022-08-30T12:29:05;98446.31;;;41.03;17.41
22964;BME280;11648;49.306;6.934;2022-08-30T12:31:39;98448.69;;;40.45;18.01
22964;BME280;11648;49.306;6.934;2022-08-30T12:34:07;98451.84;;;40.35;18.53
22964;BME280;11648;49.306;6.934;2022-08-30T12:36:47;98442.41;;;39.82;19.77
22964;BME280;11648;49.306;6.934;2022-08-30T12:41:52;98459.88;;;38.62;20.26
22964;BME280;11648;49.306;6.934;2022-08-30T12:44:24;98456.72;;;38.80;20.25
22964;BME280;11648;49.306;6.934;2022-08-30T12:46:57;98454.81;;;39.01;20.05
22964;BME280;11648;49.306;6.934;2022-08-30T12:49:29;98441.59;;;39.33;19.48
22964;BME280;11648;49.306;6.934;2022-08-30T12:55:05;98441.19;;;39.91;19.25
22964;BME280;11648;49.306;6.934;2022-08-30T13:05:50;98448.88;;;38.98;20.35
22964;BME280;11648;49.306;6.934;2022-08-30T13:11:23;98447.34;;;38.24;21.35
22964;BME280;11648;49.306;6.934;2022-08-30T13:14:18;98437.19;;;38.24;21.43
22964;BME280;11648;49.306;6.934;2022-08-30T13:16:45;98445.63;;;38.08;21.26
22964;BME280;11648;49.306;6.934;2022-08-30T13:19:34;98428.22;;;37.72;21.67
22964;BME280;11648;49.306;6.934;2022-08-30T13:22:03;98427.06;;;37.66;22.02
22964;BME280;11648;49.306;6.934;2022-08-30T13:24:30;98432.63;;;37.58;22.03
22964;BME280;11648;49.306;6.934;2022-08-30T13:27:02;98428.63;;;37.46;22.19
22964;BME280;11648;49.306;6.934;2022-08-30T13:29:33;98435.22;;;37.37;21.89
22964;BME280;11648;49.306;6.934;2022-08-30T13:32:00;98422.78;;;37.26;22.00
22964;BME280;11648;49.306;6.934;2022-08-30T13:34:27;98428.31;;;37.41;22.53
22964;BME280;11648;49.306;6.934;2022-08-30T13:36:58;98419.88;;;37.94;21.98
22964;BME280;11648;49.306;6.934;2022-08-30T13:39:26;98417.22;;;37.86;21.93
22964;BME280;11648;49.306;6.934;2022-08-30T13:41:54;98415.88;;;37.82;21.27
22964;BME280;11648;49.306;6.934;2022-08-30T13:44:41;98420.13;;;37.70;21.25
22964;BME280;11648;49.306;6.934;2022-08-30T13:47:09;98419.22;;;38.07;20.64
22964;BME280;11648;49.306;6.934;2022-08-30T13:49:57;98413.09;;;38.12;20.36
22964;BME280;11648;49.306;6.934;2022-08-30T13:52:24;98408.94;;;38.16;20.98
22964;BME280;11648;49.306;6.934;2022-08-30T13:54:52;98406.53;;;38.42;20.42
22964;BME280;11648;49.306;6.934;2022-08-30T13:57:24;98411.13;;;38.56;20.53
22964;BME280;11648;49.306;6.934;2022-08-30T14:00:14;98394.03;;;38.39;21.21
22964;BME280;11648;49.306;6.934;2022-08-30T14:02:45;98396.28;;;38.50;21.35
22964;BME280;11648;49.306;6.934;2022-08-30T14:05:26;98396.06;;;38.73;21.06
22964;BME280;11648;49.306;6.934;2022-08-30T14:08:18;98391.81;;;38.49;21.14
22964;BME280;11648;49.306;6.934;2022-08-30T14:11:05;98386.94;;;38.51;21.40
22964;BME280;11648;49.306;6.934;2022-08-30T14:13:32;98387.28;;;38.63;20.99
22964;BME280;11648;49.306;6.934;2022-08-30T14:16:04;98384.75;;;38.62;20.94
22964;BME280;11648;49.306;6.934;2022-08-30T14:18:51;98383.94;;;37.81;21.51
22964;BME280;11648;49.306;6.934;2022-08-30T14:21:18;98381.66;;;37.70;21.50
22964;BME280;11648;49.306;6.934;2022-08-30T14:23:51;98377.75;;;37.79;21.29
22964;BME280;11648;49.306;6.934;2022-08-30T14:26:21;98372.19;;;38.02;21.60
22964;BME280;11648;49.306;6.934;2022-08-30T14:28:49;98374.50;;;38.20;21.31
22964;BME280;11648;49.306;6.934;2022-08-30T14:31:17;98369.13;;;38.12;21.30
22964;BME280;11648;49.306;6.934;2022-08-30T14:33:46;98359.44;;;38.16;21.20
22964;BME280;11648;49.306;6.934;2022-08-30T14:36:13;98362.97;;;38.45;21.03
22964;BME280;11648;49.306;6.934;2022-08-30T14:38:42;98357.31;;;38.47;20.97
22964;BME280;11648;49.306;6.934;2022-08-30T14:41:09;98360.75;;;38.55;20.95
22964;BME280;11648;49.306;6.934;2022-08-30T14:43:37;98353.88;;;38.45;21.15
22964;BME280;11648;49.306;6.934;2022-08-30T14:46:07;98357.47;;;38.10;20.78
22964;BME280;11648;49.306;6.934;2022-08-30T14:48:35;98351.28;;;38.22;20.90
22964;BME280;11648;49.306;6.934;2022-08-30T14:51:23;98348.44;;;38.16;21.42
22964;BME280;11648;49.306;6.934;2022-08-30T14:53:52;98343.53;;;38.11;21.05
22964;BME280;11648;49.306;6.934;2022-08-30T14:56:20;98348.97;;;37.90;21.55
22964;BME280;11648;49.306;6.934;2022-08-30T14:58:49;98342.25;;;37.63;22.15
22964;BME280;11648;49.306;6.934;2022-08-30T15:01:18;98347.44;;;37.29;22.67
22964;BME280;11648;49.306;6.934;2022-08-30T15:03:45;98347.78;;;37.26;21.97
22964;BME280;11648;49.306;6.934;2022-08-30T15:06:12;98346.69;;;37.35;22.29
22964;BME280;11648;49.306;6.934;2022-08-30T15:08:39;98345.25;;;37.39;22.46
22964;BME280;11648;49.306;6.934;2022-08-30T15:11:11;98344.41;;;37.24;22.30